createdAt,value
2022-11-30T00:01:12.732Z,8.00
2022-11-30T00:03:39.891Z,7.63
2022-11-30T00:06:12.162Z,8.23
2022-11-30T00:08:39.887Z,8.60
2022-11-30T00:11:15.712Z,8.02
2022-11-30T00:13:42.502Z,8.00
2022-11-30T00:16:10.312Z,7.50
2022-11-30T00:18:37.663Z,8.27
2022-11-30T00:21:08.551Z,7.88
2022-11-30T00:23:37.266Z,8.15
2022-11-30T00:26:05.924Z,7.93
2022-11-30T00:28:34.388Z,8.18
2022-11-30T00:31:04.105Z,8.13
2022-11-30T00:33:33.827Z,8.63
2022-11-30T00:36:02.754Z,8.00
2022-11-30T00:38:31.383Z,8.10
2022-11-30T00:40:58.308Z,8.32
2022-11-30T00:43:25.118Z,8.75
2022-11-30T00:45:51.946Z,7.32
2022-11-30T00:48:18.882Z,7.63
2022-11-30T00:50:45.686Z,7.82
2022-11-30T00:53:12.570Z,8.32
2022-11-30T00:55:39.348Z,8.80
2022-11-30T00:58:07.449Z,8.07
2022-11-30T01:00:34.295Z,8.25
2022-11-30T01:03:01.172Z,8.52
2022-11-30T01:05:28.482Z,8.32
2022-11-30T01:07:55.803Z,8.43
2022-11-30T01:10:25.614Z,8.60
2022-11-30T01:12:53.363Z,8.65
2022-11-30T01:15:20.303Z,8.18
2022-11-30T01:17:47.130Z,8.70
2022-11-30T01:20:14.070Z,8.18
2022-11-30T01:22:40.900Z,8.25
2022-11-30T01:25:08.112Z,8.98
2022-11-30T01:27:34.953Z,8.38
2022-11-30T01:30:02.007Z,10.27
2022-11-30T01:32:28.841Z,10.27
2022-11-30T01:34:55.740Z,10.23
2022-11-30T01:37:23.129Z,10.02
2022-11-30T01:39:50.016Z,9.25
2022-11-30T01:42:19.707Z,10.48
2022-11-30T01:45:07.358Z,10.00
2022-11-30T01:47:42.200Z,9.50
2022-11-30T01:50:13.932Z,10.10
2022-11-30T01:52:46.920Z,8.98
2022-11-30T01:55:39.564Z,9.38
2022-11-30T01:58:13.800Z,8.50
2022-11-30T02:00:45.355Z,8.65
2022-11-30T02:03:30.626Z,8.13
2022-11-30T02:05:58.041Z,8.57
2022-11-30T02:08:27.007Z,8.93
2022-11-30T02:10:57.735Z,8.82
2022-11-30T02:13:48.703Z,9.15
2022-11-30T02:16:27.070Z,8.02
2022-11-30T02:18:56.700Z,8.68
2022-11-30T02:21:37.226Z,9.60
2022-11-30T02:24:20.367Z,9.48
2022-11-30T02:27:08.118Z,8.35
2022-11-30T02:29:41.073Z,8.52
2022-11-30T02:32:27.664Z,8.90
2022-11-30T02:34:57.498Z,8.60
2022-11-30T02:37:25.754Z,8.45
2022-11-30T02:39:52.617Z,8.13
2022-11-30T02:42:19.393Z,9.02
2022-11-30T02:44:50.787Z,8.85
2022-11-30T02:47:29.288Z,9.10
2022-11-30T02:50:08.783Z,8.68
2022-11-30T02:52:36.110Z,8.23
2022-11-30T02:55:06.777Z,8.35
2022-11-30T02:57:34.362Z,8.93
2022-11-30T03:00:04.387Z,7.90
2022-11-30T03:02:31.261Z,8.13
2022-11-30T03:04:58.173Z,8.05
2022-11-30T03:07:25.079Z,7.13
2022-11-30T03:09:51.891Z,7.80
2022-11-30T03:12:18.833Z,8.20
2022-11-30T03:14:46.043Z,7.45
2022-11-30T03:17:13.194Z,7.40
2022-11-30T03:19:40.133Z,8.38
2022-11-30T03:22:07.025Z,7.25
2022-11-30T03:24:34.005Z,7.55
2022-11-30T03:27:01.062Z,6.90
2022-11-30T03:29:27.994Z,7.20
2022-11-30T03:31:54.883Z,7.47
2022-11-30T03:34:22.659Z,8.18
2022-11-30T03:36:49.434Z,7.68
2022-11-30T03:39:16.217Z,8.13
2022-11-30T03:41:42.998Z,7.45
2022-11-30T03:44:10.395Z,7.10
2022-11-30T03:46:37.310Z,7.07
2022-11-30T03:49:04.127Z,7.22
2022-11-30T03:51:30.920Z,7.93
2022-11-30T03:53:57.791Z,7.38
2022-11-30T03:56:25.421Z,7.88
2022-11-30T03:58:52.206Z,7.15
2022-11-30T04:01:24.115Z,7.72
2022-11-30T04:03:51.760Z,7.72
2022-11-30T04:06:19.621Z,7.50
2022-11-30T04:08:46.703Z,7.30
2022-11-30T04:11:14.155Z,7.40
2022-11-30T04:13:41.888Z,7.45
2022-11-30T04:16:09.936Z,7.43
2022-11-30T04:18:37.255Z,7.93
2022-11-30T04:21:05.128Z,7.80
2022-11-30T04:23:34.568Z,7.47
2022-11-30T04:26:04.190Z,7.88
2022-11-30T04:28:31.224Z,7.60
2022-11-30T04:31:00.882Z,8.02
2022-11-30T04:33:28.448Z,8.65
2022-11-30T04:35:58.186Z,7.93
2022-11-30T04:38:25.442Z,7.68
2022-11-30T04:40:52.615Z,8.65
2022-11-30T04:43:20.033Z,8.60
2022-11-30T04:45:47.477Z,9.68
2022-11-30T04:48:14.976Z,9.68
2022-11-30T04:50:42.083Z,8.95
2022-11-30T04:53:09.199Z,8.60
2022-11-30T04:55:38.024Z,8.68
2022-11-30T04:58:06.116Z,9.32
2022-11-30T05:00:34.000Z,9.70
2022-11-30T05:03:00.914Z,9.77
2022-11-30T05:05:27.962Z,9.40
2022-11-30T05:07:59.377Z,9.85
2022-11-30T05:10:27.778Z,8.68
2022-11-30T05:12:55.025Z,9.35
2022-11-30T05:15:22.108Z,9.45
2022-11-30T05:17:48.913Z,10.07
2022-11-30T05:20:16.575Z,10.30
2022-11-30T05:22:43.766Z,10.43
2022-11-30T05:25:10.758Z,10.20
2022-11-30T05:27:38.073Z,10.80
2022-11-30T05:30:05.803Z,9.77
2022-11-30T05:32:32.787Z,9.70
2022-11-30T05:34:59.751Z,10.82
2022-11-30T05:37:26.606Z,10.57
2022-11-30T05:39:53.448Z,10.88
2022-11-30T05:42:20.440Z,11.43
2022-11-30T05:44:48.116Z,10.85
2022-11-30T05:47:16.039Z,11.70
2022-11-30T05:49:43.124Z,11.38
2022-11-30T05:52:10.287Z,11.00
2022-11-30T05:54:37.153Z,11.40
2022-11-30T05:57:05.486Z,12.23
2022-11-30T05:59:32.326Z,12.18
2022-11-30T06:01:59.407Z,11.23
2022-11-30T06:04:26.328Z,11.48
2022-11-30T06:06:55.764Z,12.07
2022-11-30T06:09:23.141Z,11.45
2022-11-30T06:11:50.446Z,11.05
2022-11-30T06:14:17.460Z,10.15
2022-11-30T06:16:44.458Z,11.20
2022-11-30T06:19:11.264Z,12.63
2022-11-30T06:21:38.123Z,11.73
2022-11-30T06:24:05.267Z,11.98
2022-11-30T06:26:32.189Z,10.60
2022-11-30T06:28:59.077Z,11.43
2022-11-30T06:31:25.930Z,10.57
2022-11-30T06:33:55.936Z,11.25
2022-11-30T06:36:23.295Z,10.77
2022-11-30T06:38:50.801Z,10.35
2022-11-30T06:41:18.335Z,10.65
2022-11-30T06:43:45.267Z,11.40
2022-11-30T06:46:12.617Z,10.45
2022-11-30T06:48:39.733Z,9.82
2022-11-30T06:51:10.545Z,9.88
2022-11-30T06:53:37.755Z,9.82
2022-11-30T06:56:09.939Z,9.95
2022-11-30T06:58:40.910Z,10.18
2022-11-30T07:01:12.602Z,9.27
2022-11-30T07:03:40.438Z,10.25
2022-11-30T07:06:14.580Z,9.85
2022-11-30T07:08:43.214Z,9.57
2022-11-30T07:11:11.774Z,9.77
2022-11-30T07:13:39.024Z,9.05
2022-11-30T07:16:07.612Z,9.45
2022-11-30T07:18:34.986Z,9.77
2022-11-30T07:21:03.387Z,9.52
2022-11-30T07:23:55.515Z,9.32
2022-11-30T07:26:23.614Z,8.73
2022-11-30T07:28:54.842Z,9.07
2022-11-30T07:31:25.307Z,8.43
2022-11-30T07:33:52.951Z,8.75
2022-11-30T07:36:21.678Z,9.07
2022-11-30T07:38:49.545Z,9.43
2022-11-30T07:41:16.454Z,9.98
2022-11-30T07:43:43.464Z,10.77
2022-11-30T07:46:13.212Z,9.82
2022-11-30T07:48:40.726Z,9.18
2022-11-30T07:51:13.616Z,9.45
2022-11-30T07:53:40.538Z,9.32
2022-11-30T07:56:12.205Z,9.60
2022-11-30T07:58:40.030Z,8.82
2022-11-30T08:01:09.653Z,9.25
2022-11-30T08:03:37.532Z,9.10
2022-11-30T08:06:11.554Z,9.02
2022-11-30T08:08:41.012Z,8.07
2022-11-30T08:11:09.584Z,8.80
2022-11-30T08:13:36.787Z,8.98
2022-11-30T08:16:09.140Z,8.57
2022-11-30T08:18:36.919Z,8.13
2022-11-30T08:21:06.040Z,8.50
2022-11-30T08:23:35.657Z,8.43
2022-11-30T08:26:09.812Z,7.95
2022-11-30T08:28:37.065Z,7.10
2022-11-30T08:31:06.910Z,8.93
2022-11-30T08:33:36.399Z,7.68
2022-11-30T08:36:13.649Z,7.78
2022-11-30T08:38:41.682Z,7.30
2022-11-30T08:41:09.975Z,8.07
2022-11-30T08:43:36.902Z,8.43
2022-11-30T08:46:27.342Z,7.75
2022-11-30T08:49:12.530Z,7.53
2022-11-30T08:52:08.615Z,7.57
2022-11-30T08:54:27.746Z,8.00
2022-11-30T08:56:54.559Z,7.32
2022-11-30T08:59:21.381Z,8.02
2022-11-30T09:01:48.308Z,7.60
2022-11-30T09:04:15.093Z,8.10
2022-11-30T09:06:41.985Z,7.97
2022-11-30T09:09:08.957Z,8.05
2022-11-30T09:11:35.788Z,7.03
2022-11-30T09:14:08.052Z,7.50
2022-11-30T09:16:35.669Z,7.68
2022-11-30T09:19:02.811Z,7.15
2022-11-30T09:21:29.867Z,7.70
2022-11-30T09:23:57.269Z,8.05
2022-11-30T09:26:25.327Z,7.32
2022-11-30T09:28:53.402Z,7.60
2022-11-30T09:31:25.183Z,8.43
2022-11-30T09:33:53.234Z,7.20
2022-11-30T09:36:21.855Z,7.53
2022-11-30T09:38:49.299Z,7.10
2022-11-30T09:41:34.552Z,6.65
2022-11-30T09:44:25.533Z,6.93
2022-11-30T09:46:58.115Z,7.20
2022-11-30T09:49:34.059Z,7.15
2022-11-30T09:52:04.529Z,7.32
2022-11-30T09:54:38.970Z,7.25
2022-11-30T10:00:12.457Z,6.68
2022-11-30T10:02:42.901Z,6.68
2022-11-30T10:05:12.995Z,6.95
2022-11-30T10:07:42.887Z,7.38
2022-11-30T10:10:35.361Z,7.03
2022-11-30T10:13:25.254Z,6.55
2022-11-30T10:16:21.061Z,7.15
2022-11-30T10:19:15.850Z,6.78
2022-11-30T10:22:06.662Z,7.10
2022-11-30T10:24:42.346Z,6.50
2022-11-30T10:27:16.975Z,8.05
2022-11-30T10:29:44.349Z,7.55
2022-11-30T10:32:19.723Z,7.63
2022-11-30T10:34:54.846Z,7.80
2022-11-30T10:37:36.104Z,7.65
2022-11-30T10:40:36.231Z,8.23
2022-11-30T10:43:24.824Z,7.95
2022-11-30T10:45:51.753Z,7.07
2022-11-30T10:48:37.788Z,7.65
2022-11-30T10:51:04.700Z,7.63
2022-11-30T10:53:33.425Z,7.93
2022-11-30T10:56:14.525Z,7.80
2022-11-30T10:59:01.612Z,8.27
2022-11-30T11:01:35.854Z,7.18
2022-11-30T11:04:19.469Z,7.75
2022-11-30T11:07:08.380Z,7.78
2022-11-30T11:09:47.052Z,7.78
2022-11-30T11:12:46.104Z,7.22
2022-11-30T11:15:30.814Z,7.88
2022-11-30T11:21:16.540Z,6.65
2022-11-30T11:23:44.713Z,7.07
2022-11-30T11:26:21.200Z,6.60
2022-11-30T11:28:50.342Z,7.05
2022-11-30T11:31:33.423Z,8.35
2022-11-30T11:34:00.335Z,7.78
2022-11-30T11:36:33.289Z,7.82
2022-11-30T11:39:00.945Z,8.00
2022-11-30T11:41:34.958Z,8.82
2022-11-30T11:44:04.585Z,7.63
2022-11-30T11:46:33.245Z,7.82
2022-11-30T11:49:26.178Z,7.85
2022-11-30T11:52:11.270Z,7.72
2022-11-30T11:55:06.067Z,8.18
2022-11-30T11:57:53.287Z,8.13
2022-11-30T12:00:23.327Z,7.65
2022-11-30T12:03:14.322Z,7.68
2022-11-30T12:06:01.692Z,7.20
2022-11-30T12:08:47.652Z,7.78
2022-11-30T12:11:17.765Z,7.35
2022-11-30T12:13:46.344Z,7.85
2022-11-30T12:16:15.998Z,8.07
2022-11-30T12:18:50.938Z,7.10
2022-11-30T12:21:42.682Z,8.20
2022-11-30T12:24:23.468Z,7.35
2022-11-30T12:26:57.095Z,6.88
2022-11-30T12:29:32.788Z,7.18
2022-11-30T12:32:23.158Z,6.90
2022-11-30T12:35:29.310Z,7.55
2022-11-30T12:38:13.324Z,6.47
2022-11-30T12:41:15.147Z,6.90
2022-11-30T12:44:04.231Z,6.18
2022-11-30T12:46:43.034Z,6.57
2022-11-30T12:49:15.913Z,7.43
2022-11-30T12:52:01.677Z,6.75
2022-11-30T12:54:41.247Z,6.90
2022-11-30T12:57:22.896Z,6.88
2022-11-30T13:00:06.655Z,7.22
2022-11-30T13:02:45.658Z,7.10
2022-11-30T13:05:21.278Z,6.97
2022-11-30T13:08:05.405Z,7.63
2022-11-30T13:10:42.921Z,7.25
2022-11-30T13:13:19.155Z,7.47
2022-11-30T13:15:47.684Z,7.28
2022-11-30T13:18:19.493Z,7.20
2022-11-30T13:21:06.867Z,6.80
2022-11-30T13:23:41.652Z,6.70
2022-11-30T13:26:42.329Z,7.90
2022-11-30T13:29:33.343Z,8.07
2022-11-30T13:32:27.511Z,6.57
2022-11-30T13:35:29.321Z,6.60
2022-11-30T13:41:03.223Z,7.05
2022-11-30T13:43:51.519Z,7.00
2022-11-30T13:46:23.848Z,7.30
2022-11-30T13:49:22.780Z,8.10
2022-11-30T13:52:13.210Z,6.63
2022-11-30T13:54:48.437Z,6.80
2022-11-30T13:57:38.371Z,6.22
2022-11-30T14:00:30.753Z,6.32
2022-11-30T14:03:23.138Z,6.30
2022-11-30T14:05:54.540Z,5.68
2022-11-30T14:08:21.303Z,7.03
2022-11-30T14:10:50.657Z,6.85
2022-11-30T14:13:22.516Z,6.85
2022-11-30T14:16:02.301Z,6.90
2022-11-30T14:18:42.012Z,6.05
2022-11-30T14:21:22.932Z,6.13
2022-11-30T14:24:01.061Z,5.82
2022-11-30T14:26:37.221Z,6.25
2022-11-30T14:29:16.725Z,6.25
2022-11-30T14:32:06.468Z,6.38
2022-11-30T14:34:45.811Z,5.85
2022-11-30T14:37:22.044Z,5.97
2022-11-30T14:39:50.576Z,6.28
2022-11-30T14:42:23.471Z,5.95
2022-11-30T14:44:50.901Z,6.15
2022-11-30T14:47:25.444Z,5.93
2022-11-30T14:49:55.122Z,5.60
2022-11-30T14:52:46.298Z,5.57
2022-11-30T14:55:29.308Z,5.75
2022-11-30T14:58:21.605Z,5.57
2022-11-30T15:00:50.368Z,6.05
2022-11-30T15:03:27.762Z,5.53
2022-11-30T15:05:58.627Z,5.43
2022-11-30T15:08:38.837Z,5.30
2022-11-30T15:11:09.345Z,5.80
2022-11-30T15:13:42.600Z,5.25
2022-11-30T15:16:22.097Z,5.32
2022-11-30T15:18:49.703Z,5.65
2022-11-30T15:21:24.140Z,4.88
2022-11-30T15:26:30.404Z,4.22
2022-11-30T15:29:12.564Z,4.70
2022-11-30T15:31:44.183Z,4.82
2022-11-30T15:34:40.584Z,4.97
2022-11-30T15:37:07.774Z,5.18
2022-11-30T15:39:34.785Z,5.05
2022-11-30T15:42:04.277Z,5.13
2022-11-30T15:44:45.216Z,4.95
2022-11-30T15:47:27.550Z,5.15
2022-11-30T15:49:55.799Z,5.13
2022-11-30T15:52:28.794Z,5.32
2022-11-30T15:54:58.922Z,6.40
2022-11-30T15:57:27.128Z,5.80
2022-11-30T16:00:24.056Z,5.63
2022-11-30T16:03:07.971Z,6.13
2022-11-30T16:05:35.005Z,6.03
2022-11-30T16:08:03.732Z,6.55
2022-11-30T16:10:36.691Z,6.30
2022-11-30T16:13:04.598Z,6.10
2022-11-30T16:15:36.669Z,6.22
2022-11-30T16:18:23.043Z,6.43
2022-11-30T16:21:00.771Z,6.88
2022-11-30T16:23:28.655Z,6.95
2022-11-30T16:25:56.156Z,6.05
2022-11-30T16:28:23.173Z,7.30
2022-11-30T16:30:50.748Z,5.85
2022-11-30T16:33:24.482Z,6.93
2022-11-30T16:36:02.899Z,6.43
2022-11-30T16:38:29.791Z,6.70
2022-11-30T16:41:23.548Z,6.65
2022-11-30T16:43:52.234Z,6.65
2022-11-30T16:46:27.259Z,6.53
2022-11-30T16:48:55.163Z,6.45
2022-11-30T16:51:34.531Z,6.93
2022-11-30T16:54:01.595Z,6.90
2022-11-30T16:56:28.627Z,7.53
2022-11-30T16:58:55.550Z,7.20
2022-11-30T17:01:54.987Z,6.78
2022-11-30T17:04:24.383Z,7.57
2022-11-30T17:06:54.797Z,7.18
2022-11-30T17:09:26.922Z,7.65
2022-11-30T17:11:53.827Z,7.97
2022-11-30T17:14:22.200Z,7.38
2022-11-30T17:16:49.225Z,7.38
2022-11-30T17:19:16.220Z,8.27
2022-11-30T17:21:44.691Z,9.95
2022-11-30T17:24:12.403Z,8.60
2022-11-30T17:26:39.421Z,10.65
2022-11-30T17:29:06.694Z,10.65
2022-11-30T17:31:33.736Z,9.75
2022-11-30T17:34:00.634Z,9.60
2022-11-30T17:36:29.350Z,8.55
2022-11-30T17:38:56.723Z,8.00
2022-11-30T17:41:23.862Z,8.35
2022-11-30T17:43:51.999Z,8.60
2022-11-30T17:46:19.409Z,9.27
2022-11-30T17:48:46.434Z,8.93
2022-11-30T17:51:13.720Z,8.73
2022-11-30T17:53:42.605Z,8.85
2022-11-30T17:56:12.771Z,8.70
2022-11-30T17:58:43.850Z,8.52
2022-11-30T18:01:25.379Z,7.75
2022-11-30T18:03:53.978Z,8.07
2022-11-30T18:06:21.080Z,7.63
2022-11-30T18:08:48.154Z,8.07
2022-11-30T18:11:22.863Z,8.00
2022-11-30T18:13:54.546Z,8.25
2022-11-30T18:16:26.863Z,7.65
2022-11-30T18:18:56.325Z,6.88
2022-11-30T18:21:24.453Z,6.97
2022-11-30T18:23:53.123Z,6.78
2022-11-30T18:26:22.427Z,7.05
2022-11-30T18:28:54.352Z,7.15
2022-11-30T18:31:21.717Z,7.35
2022-11-30T18:33:48.801Z,6.55
2022-11-30T18:36:15.749Z,7.18
2022-11-30T18:38:43.957Z,6.50
2022-11-30T18:41:10.740Z,6.45
2022-11-30T18:43:38.494Z,6.35
2022-11-30T18:46:11.146Z,6.00
2022-11-30T18:48:39.493Z,6.50
2022-11-30T18:51:13.828Z,6.40
2022-11-30T18:56:09.620Z,5.10
2022-11-30T18:58:36.684Z,5.70
2022-11-30T19:01:08.377Z,6.00
2022-11-30T19:03:36.252Z,6.13
2022-11-30T19:06:05.621Z,5.68
2022-11-30T19:08:33.340Z,6.10
2022-11-30T19:11:05.412Z,5.70
2022-11-30T19:13:33.510Z,5.03
2022-11-30T19:16:06.234Z,5.10
2022-11-30T19:18:33.465Z,5.53
2022-11-30T19:21:00.382Z,5.15
2022-11-30T19:23:28.253Z,4.85
2022-11-30T19:26:00.767Z,5.20
2022-11-30T19:28:30.173Z,5.28
2022-11-30T19:30:57.884Z,4.72
2022-11-30T19:33:25.879Z,4.72
2022-11-30T19:35:53.078Z,5.05
2022-11-30T19:38:19.836Z,5.30
2022-11-30T19:40:46.603Z,4.88
2022-11-30T19:43:13.786Z,5.50
2022-11-30T19:45:41.110Z,5.30
2022-11-30T19:48:08.006Z,5.38
2022-11-30T19:50:34.793Z,5.00
2022-11-30T19:53:01.695Z,5.03
2022-11-30T19:55:28.552Z,5.00
2022-11-30T19:57:55.732Z,5.15
2022-11-30T20:00:22.746Z,5.10
2022-11-30T20:02:50.267Z,4.65
2022-11-30T20:05:17.882Z,4.57
2022-11-30T20:07:44.983Z,4.85
2022-11-30T20:10:14.990Z,4.97
2022-11-30T20:12:43.014Z,6.35
2022-11-30T20:15:10.659Z,7.20
2022-11-30T20:17:37.930Z,6.22
2022-11-30T20:20:05.654Z,5.10
2022-11-30T20:22:33.684Z,4.90
2022-11-30T20:25:00.608Z,5.20
2022-11-30T20:27:27.792Z,4.47
2022-11-30T20:29:56.247Z,5.10
2022-11-30T20:32:23.874Z,5.20
2022-11-30T20:34:51.272Z,6.43
2022-11-30T20:37:18.887Z,5.38
2022-11-30T20:39:46.505Z,6.63
2022-11-30T20:42:13.826Z,6.00
2022-11-30T20:44:41.098Z,5.90
2022-11-30T20:47:08.895Z,6.35
2022-11-30T20:49:36.648Z,5.93
2022-11-30T20:52:04.327Z,5.65
2022-11-30T20:54:31.635Z,5.63
2022-11-30T20:56:58.982Z,5.35
2022-11-30T20:59:26.804Z,5.45
2022-11-30T21:01:55.818Z,6.03
2022-11-30T21:04:27.510Z,6.35
2022-11-30T21:06:54.920Z,6.43
2022-11-30T21:09:21.967Z,5.55
2022-11-30T21:11:49.170Z,5.65
2022-11-30T21:14:17.840Z,5.15
2022-11-30T21:16:44.869Z,5.13
2022-11-30T21:19:13.032Z,5.35
2022-11-30T21:21:39.970Z,5.20
2022-11-30T21:24:08.765Z,5.65
2022-11-30T21:26:42.930Z,5.18
2022-11-30T21:29:15.197Z,5.20
2022-11-30T21:31:42.803Z,5.07
2022-11-30T21:34:10.109Z,5.47
2022-11-30T21:36:37.216Z,5.20
2022-11-30T21:39:07.468Z,4.82
2022-11-30T21:41:37.147Z,5.00
2022-11-30T21:44:05.058Z,5.05
2022-11-30T21:46:32.549Z,5.40
2022-11-30T21:48:59.590Z,5.40
2022-11-30T21:51:28.185Z,5.72
2022-11-30T21:53:57.444Z,5.25
2022-11-30T21:56:29.982Z,5.25
2022-11-30T21:58:57.575Z,5.72
2022-11-30T22:01:26.024Z,5.40
2022-11-30T22:03:55.799Z,5.82
2022-11-30T22:06:24.062Z,5.80
2022-11-30T22:08:51.003Z,6.65
2022-11-30T22:11:20.211Z,6.68
2022-11-30T22:13:52.293Z,6.80
2022-11-30T22:16:20.629Z,6.25
2022-11-30T22:18:48.226Z,6.72
2022-11-30T22:21:19.715Z,6.30
2022-11-30T22:23:53.207Z,7.28
2022-11-30T22:26:22.474Z,6.57
2022-11-30T22:28:53.470Z,6.47
2022-11-30T22:31:23.660Z,6.80
2022-11-30T22:33:50.769Z,6.35
2022-11-30T22:36:20.071Z,6.93
2022-11-30T22:38:47.825Z,6.25
2022-11-30T22:41:17.032Z,6.80
2022-11-30T22:43:46.173Z,7.78
2022-11-30T22:46:19.094Z,7.72
2022-11-30T22:48:46.836Z,7.70
2022-11-30T22:51:19.678Z,7.88
2022-11-30T22:53:47.970Z,7.18
2022-11-30T22:56:20.311Z,7.05
2022-11-30T22:58:48.626Z,8.00
2022-11-30T23:01:18.283Z,7.72
2022-11-30T23:03:46.947Z,7.68
2022-11-30T23:06:15.583Z,8.05
2022-11-30T23:08:43.837Z,7.88
2022-11-30T23:11:13.549Z,8.48
2022-11-30T23:13:42.283Z,8.07
2022-11-30T23:16:10.785Z,7.97
2022-11-30T23:18:41.299Z,7.80
2022-11-30T23:21:18.896Z,7.75
2022-11-30T23:23:46.892Z,7.70
2022-11-30T23:26:17.856Z,8.07
2022-11-30T23:28:47.351Z,7.78
2022-11-30T23:31:34.113Z,8.85
2022-11-30T23:34:10.785Z,8.40
2022-11-30T23:36:38.151Z,8.75
2022-11-30T23:39:09.205Z,9.20
2022-11-30T23:41:36.484Z,8.75
2022-11-30T23:44:03.391Z,8.27
2022-11-30T23:46:30.787Z,8.50
2022-11-30T23:48:57.774Z,10.07
2022-11-30T23:51:24.606Z,9.80
2022-11-30T23:53:51.598Z,9.02
2022-11-30T23:56:20.451Z,9.40
2022-11-30T23:58:47.562Z,9.70
